createdAt,value
2023-04-27T00:00:19.729Z,17.70
2023-04-27T00:03:09.923Z,19.20
2023-04-27T00:05:39.528Z,16.77
2023-04-27T00:08:08.704Z,20.42
2023-04-27T00:10:37.021Z,18.13
2023-04-27T00:13:06.253Z,16.90
2023-04-27T00:15:34.486Z,16.65
2023-04-27T00:18:03.081Z,20.15
2023-04-27T00:20:33.997Z,17.67
2023-04-27T00:23:02.477Z,17.02
2023-04-27T00:25:30.675Z,21.88
2023-04-27T00:27:59.196Z,21.08
2023-04-27T00:30:27.550Z,17.58
2023-04-27T00:32:56.237Z,17.40
2023-04-27T00:35:24.821Z,17.25
2023-04-27T00:37:56.164Z,21.83
2023-04-27T00:40:24.440Z,20.42
2023-04-27T00:42:53.088Z,17.77
2023-04-27T00:45:21.310Z,16.02
2023-04-27T00:47:50.236Z,17.38
2023-04-27T00:50:20.425Z,19.70
2023-04-27T00:52:49.058Z,17.67
2023-04-27T00:55:19.630Z,19.73
2023-04-27T00:57:48.153Z,19.50
2023-04-27T01:00:16.712Z,17.05
2023-04-27T01:02:45.438Z,17.73
2023-04-27T01:05:13.818Z,19.50
2023-04-27T01:07:42.703Z,18.05
2023-04-27T01:10:11.588Z,21.02
2023-04-27T01:12:41.644Z,20.92
2023-04-27T01:15:11.297Z,20.00
2023-04-27T01:17:39.837Z,19.08
2023-04-27T01:20:10.659Z,19.55
2023-04-27T01:22:39.797Z,22.42
2023-04-27T01:25:10.107Z,22.13
2023-04-27T01:27:38.562Z,23.35
2023-04-27T01:30:08.428Z,18.08
2023-04-27T01:32:38.503Z,24.90
2023-04-27T01:35:07.394Z,19.27
2023-04-27T01:37:37.011Z,20.10
2023-04-27T01:40:06.771Z,24.38
2023-04-27T01:42:36.697Z,20.70
2023-04-27T01:45:05.502Z,22.48
2023-04-27T01:47:34.180Z,19.27
2023-04-27T01:50:02.427Z,22.25
2023-04-27T01:52:30.987Z,19.77
2023-04-27T01:54:59.134Z,25.60
2023-04-27T01:57:27.615Z,16.88
2023-04-27T01:59:57.190Z,21.48
2023-04-27T02:02:25.760Z,24.13
2023-04-27T02:04:54.252Z,23.63
2023-04-27T02:07:22.922Z,23.88
2023-04-27T02:09:51.145Z,27.02
2023-04-27T02:12:19.729Z,24.55
2023-04-27T02:14:47.913Z,21.88
2023-04-27T02:17:17.688Z,19.60
2023-04-27T02:19:45.874Z,20.58
2023-04-27T02:22:14.331Z,22.25
2023-04-27T02:24:42.430Z,24.00
2023-04-27T02:27:11.051Z,20.33
2023-04-27T02:29:40.004Z,20.55
2023-04-27T02:32:09.078Z,21.92
2023-04-27T02:34:38.538Z,22.02
2023-04-27T02:37:07.059Z,22.95
2023-04-27T02:39:35.987Z,20.52
2023-04-27T02:42:04.507Z,19.10
2023-04-27T02:44:32.658Z,18.13
2023-04-27T02:47:01.207Z,24.35
2023-04-27T02:49:29.399Z,20.52
2023-04-27T02:51:59.361Z,20.65
2023-04-27T02:54:27.594Z,18.52
2023-04-27T02:56:56.121Z,20.40
2023-04-27T02:59:24.499Z,21.90
2023-04-27T03:01:53.120Z,22.80
2023-04-27T03:04:21.443Z,20.02
2023-04-27T03:06:49.970Z,22.17
2023-04-27T03:09:19.600Z,21.48
2023-04-27T03:11:48.060Z,26.70
2023-04-27T03:14:16.333Z,25.67
2023-04-27T03:16:44.878Z,20.20
2023-04-27T03:19:13.298Z,20.42
2023-04-27T03:21:42.011Z,21.15
2023-04-27T03:24:10.231Z,24.08
2023-04-27T03:26:40.083Z,20.60
2023-04-27T03:29:08.283Z,21.17
2023-04-27T03:31:36.912Z,24.88
2023-04-27T03:34:05.359Z,23.70
2023-04-27T03:36:33.989Z,23.45
2023-04-27T03:39:02.185Z,23.58
2023-04-27T03:41:30.888Z,20.65
2023-04-27T03:44:00.815Z,26.55
2023-04-27T03:46:29.273Z,22.58
2023-04-27T03:48:57.562Z,20.80
2023-04-27T03:51:27.099Z,23.52
2023-04-27T03:53:55.782Z,23.00
2023-04-27T03:56:24.356Z,22.60
2023-04-27T03:58:52.813Z,23.50
2023-04-27T04:01:22.761Z,25.50
2023-04-27T04:03:51.837Z,21.95
2023-04-27T04:06:20.920Z,23.40
2023-04-27T04:08:49.167Z,23.00
2023-04-27T04:11:17.624Z,22.98
2023-04-27T04:13:46.226Z,22.15
2023-04-27T04:16:14.748Z,20.75
2023-04-27T04:18:44.276Z,25.13
2023-04-27T04:21:12.795Z,22.23
2023-04-27T04:23:41.935Z,20.92
2023-04-27T04:26:10.392Z,21.70
2023-04-27T04:28:38.549Z,17.35
2023-04-27T04:31:09.957Z,23.98
2023-04-27T04:33:38.353Z,21.70
2023-04-27T04:36:09.146Z,26.00
2023-04-27T04:38:37.482Z,24.83
2023-04-27T04:41:07.403Z,29.65
2023-04-27T04:43:35.670Z,33.38
2023-04-27T04:46:04.319Z,34.60
2023-04-27T04:48:32.462Z,31.02
2023-04-27T04:51:01.311Z,26.27
2023-04-27T04:53:30.865Z,22.13
2023-04-27T04:55:59.497Z,26.83
2023-04-27T04:58:27.713Z,19.52
2023-04-27T05:00:56.543Z,19.50
2023-04-27T05:03:24.993Z,18.23
2023-04-27T05:05:53.526Z,20.63
2023-04-27T05:08:21.780Z,18.45
2023-04-27T05:10:52.130Z,21.65
2023-04-27T05:13:20.396Z,19.77
2023-04-27T05:15:49.007Z,18.90
2023-04-27T05:18:17.250Z,19.80
2023-04-27T05:20:45.744Z,18.95
2023-04-27T05:23:13.973Z,20.75
2023-04-27T05:25:43.118Z,17.85
2023-04-27T05:28:12.974Z,15.55
2023-04-27T05:30:41.465Z,18.08
2023-04-27T05:33:09.714Z,17.63
2023-04-27T05:35:38.311Z,23.73
2023-04-27T05:38:06.570Z,17.77
2023-04-27T05:40:35.200Z,17.02
2023-04-27T05:43:05.677Z,17.33
2023-04-27T05:45:40.623Z,15.45
2023-04-27T05:48:08.949Z,15.35
2023-04-27T05:50:37.520Z,16.40
2023-04-27T05:53:06.247Z,17.27
2023-04-27T05:55:35.063Z,16.55
2023-04-27T05:58:08.647Z,19.42
2023-04-27T06:00:39.333Z,18.02
2023-04-27T06:03:08.035Z,20.73
2023-04-27T06:05:37.143Z,17.75
2023-04-27T06:08:05.912Z,21.13
2023-04-27T06:10:34.789Z,14.38
2023-04-27T06:13:03.277Z,18.30
2023-04-27T06:15:32.080Z,18.80
2023-04-27T06:18:02.172Z,19.60
2023-04-27T06:20:31.693Z,16.98
2023-04-27T06:23:00.728Z,24.25
2023-04-27T06:25:29.697Z,18.75
2023-04-27T06:27:58.490Z,15.48
2023-04-27T06:30:28.139Z,15.35
2023-04-27T06:32:56.969Z,16.85
2023-04-27T06:35:28.154Z,14.90
2023-04-27T06:37:59.166Z,14.25
2023-04-27T06:40:28.164Z,14.77
2023-04-27T06:42:57.321Z,10.48
2023-04-27T06:45:27.159Z,11.98
2023-04-27T06:47:56.427Z,12.98
2023-04-27T06:50:27.255Z,13.27
2023-04-27T06:52:56.400Z,9.02
2023-04-27T06:55:25.401Z,11.95
2023-04-27T06:57:54.754Z,9.73
2023-04-27T07:00:28.486Z,13.52
2023-04-27T07:02:57.002Z,12.18
2023-04-27T07:05:29.057Z,8.75
2023-04-27T07:07:57.390Z,13.77
2023-04-27T07:10:26.744Z,9.73
2023-04-27T07:12:55.160Z,13.27
2023-04-27T07:15:24.417Z,11.90
2023-04-27T07:17:54.221Z,9.00
2023-04-27T07:20:23.044Z,7.72
2023-04-27T07:22:52.973Z,11.18
2023-04-27T07:25:21.981Z,9.18
2023-04-27T07:27:51.109Z,9.63
2023-04-27T07:30:20.329Z,10.75
2023-04-27T07:32:54.615Z,8.48
2023-04-27T07:35:25.052Z,9.43
2023-04-27T07:37:55.197Z,8.80
2023-04-27T07:42:55.232Z,8.20
2023-04-27T07:45:32.224Z,8.15
2023-04-27T07:48:02.367Z,7.15
2023-04-27T07:50:32.635Z,9.80
2023-04-27T07:53:02.688Z,7.10
2023-04-27T07:55:33.408Z,3.42
2023-04-27T07:58:02.363Z,2.50
2023-04-27T08:00:31.890Z,6.38
2023-04-27T08:03:00.913Z,4.22
2023-04-27T08:05:32.864Z,4.70
2023-04-27T08:08:03.176Z,5.70
2023-04-27T08:10:32.510Z,6.55
2023-04-27T08:13:01.213Z,6.68
2023-04-27T08:15:30.030Z,6.50
2023-04-27T08:17:58.359Z,7.63
2023-04-27T08:20:27.925Z,6.95
2023-04-27T08:22:56.915Z,6.07
2023-04-27T08:25:28.555Z,7.20
2023-04-27T08:27:57.221Z,7.75
2023-04-27T08:30:26.297Z,5.43
2023-04-27T08:32:55.749Z,5.30
2023-04-27T08:35:24.984Z,7.65
2023-04-27T08:37:54.407Z,4.65
2023-04-27T08:40:25.036Z,5.20
2023-04-27T08:42:59.976Z,3.80
2023-04-27T08:45:29.362Z,4.75
2023-04-27T08:47:58.068Z,3.45
2023-04-27T08:50:27.515Z,5.72
2023-04-27T08:52:56.909Z,5.53
2023-04-27T08:55:28.592Z,5.97
2023-04-27T08:58:01.642Z,3.25
2023-04-27T09:00:40.912Z,5.47
2023-04-27T09:03:09.445Z,4.63
2023-04-27T09:05:44.132Z,6.95
2023-04-27T09:08:17.692Z,6.90
2023-04-27T09:10:47.658Z,6.57
2023-04-27T09:13:17.300Z,6.00
2023-04-27T09:15:48.563Z,6.68
2023-04-27T09:18:18.617Z,8.07
2023-04-27T09:20:48.198Z,7.50
2023-04-27T09:23:29.528Z,5.50
2023-04-27T09:25:59.512Z,20.50
2023-04-27T09:28:30.966Z,9.57
2023-04-27T09:31:01.116Z,5.53
2023-04-27T09:33:30.559Z,6.50
2023-04-27T09:36:02.611Z,6.53
2023-04-27T09:38:31.715Z,5.70
2023-04-27T09:41:00.931Z,6.38
2023-04-27T09:43:31.631Z,8.77
2023-04-27T09:46:00.424Z,4.82
2023-04-27T09:48:31.765Z,4.13
2023-04-27T09:51:00.637Z,5.55
2023-04-27T09:53:33.328Z,4.32
2023-04-27T09:56:14.934Z,7.80
2023-04-27T09:59:07.901Z,5.15
2023-04-27T10:01:41.104Z,9.00
2023-04-27T10:04:28.187Z,7.50
2023-04-27T10:07:01.467Z,5.68
2023-04-27T10:09:37.907Z,5.25
2023-04-27T10:12:18.076Z,5.78
2023-04-27T10:14:52.632Z,3.50
2023-04-27T10:17:26.229Z,6.50
2023-04-27T10:19:58.701Z,4.97
2023-04-27T10:22:40.132Z,4.57
2023-04-27T10:25:16.660Z,4.30
2023-04-27T10:27:46.410Z,5.05
2023-04-27T10:30:19.494Z,6.40
2023-04-27T10:32:56.168Z,5.80
2023-04-27T10:35:34.489Z,5.22
2023-04-27T10:38:07.818Z,6.47
2023-04-27T10:40:37.320Z,5.68
2023-04-27T10:43:13.113Z,6.05
2023-04-27T10:45:43.760Z,13.32
2023-04-27T10:48:15.870Z,9.57
2023-04-27T10:50:44.993Z,7.50
2023-04-27T10:53:14.301Z,5.75
2023-04-27T10:55:42.661Z,6.68
2023-04-27T10:58:11.421Z,7.20
2023-04-27T11:00:44.980Z,6.50
2023-04-27T11:03:16.898Z,6.05
2023-04-27T11:05:47.025Z,6.22
2023-04-27T11:08:16.696Z,4.07
2023-04-27T11:10:46.625Z,4.95
2023-04-27T11:13:17.968Z,4.47
2023-04-27T11:15:49.115Z,3.70
2023-04-27T11:18:18.827Z,4.80
2023-04-27T11:20:49.515Z,4.43
2023-04-27T11:23:26.303Z,3.97
2023-04-27T11:25:55.224Z,3.97
2023-04-27T11:28:24.810Z,4.53
2023-04-27T11:31:01.394Z,4.95
2023-04-27T11:33:30.232Z,6.38
2023-04-27T11:35:58.666Z,3.22
2023-04-27T11:38:28.394Z,4.65
2023-04-27T11:41:05.108Z,3.30
2023-04-27T11:43:34.332Z,5.35
2023-04-27T11:46:06.410Z,6.00
2023-04-27T11:48:38.212Z,7.45
2023-04-27T11:51:07.224Z,9.48
2023-04-27T11:53:40.087Z,5.88
2023-04-27T11:56:11.344Z,7.13
2023-04-27T11:58:40.916Z,6.80
2023-04-27T12:01:12.226Z,8.45
2023-04-27T12:03:41.775Z,8.60
2023-04-27T12:06:22.067Z,8.57
2023-04-27T12:08:57.870Z,7.68
2023-04-27T12:11:27.860Z,5.63
2023-04-27T12:13:56.949Z,7.07
2023-04-27T12:16:27.058Z,5.05
2023-04-27T12:18:55.681Z,7.47
2023-04-27T12:21:24.365Z,5.13
2023-04-27T12:23:53.010Z,14.27
2023-04-27T12:26:21.762Z,13.48
2023-04-27T12:28:50.742Z,7.28
2023-04-27T12:31:25.363Z,6.32
2023-04-27T12:33:57.099Z,6.10
2023-04-27T12:36:27.259Z,7.45
2023-04-27T12:39:00.163Z,8.45
2023-04-27T12:41:29.362Z,5.10
2023-04-27T12:43:58.123Z,5.18
2023-04-27T12:46:26.503Z,8.90
2023-04-27T12:48:57.287Z,14.18
2023-04-27T12:51:25.930Z,7.80
2023-04-27T12:53:54.611Z,8.95
2023-04-27T12:56:23.095Z,10.23
2023-04-27T12:58:51.631Z,9.00
2023-04-27T13:01:24.802Z,6.40
2023-04-27T13:03:54.470Z,7.75
2023-04-27T13:06:24.599Z,8.73
2023-04-27T13:08:53.250Z,4.40
2023-04-27T13:11:22.091Z,6.47
2023-04-27T13:13:50.862Z,6.20
2023-04-27T13:16:19.418Z,5.22
2023-04-27T13:18:50.592Z,6.68
2023-04-27T13:21:19.442Z,6.65
2023-04-27T13:23:49.749Z,6.88
2023-04-27T13:26:18.159Z,5.45
2023-04-27T13:28:46.807Z,5.38
2023-04-27T13:31:15.241Z,7.60
2023-04-27T13:33:45.988Z,8.10
2023-04-27T13:36:15.184Z,7.15
2023-04-27T13:38:43.904Z,6.65
2023-04-27T13:41:13.829Z,6.20
2023-04-27T13:43:42.589Z,4.65
2023-04-27T13:46:12.333Z,7.70
2023-04-27T13:48:41.027Z,7.78
2023-04-27T13:51:09.365Z,8.55
2023-04-27T13:53:38.089Z,4.90
2023-04-27T13:56:06.764Z,5.75
2023-04-27T13:58:37.173Z,7.45
2023-04-27T14:01:05.747Z,6.38
2023-04-27T14:03:35.754Z,7.60
2023-04-27T14:06:04.456Z,7.22
2023-04-27T14:08:33.096Z,7.72
2023-04-27T14:11:01.711Z,9.18
2023-04-27T14:13:30.503Z,7.70
2023-04-27T14:16:00.227Z,7.10
2023-04-27T14:18:32.500Z,6.32
2023-04-27T14:21:01.196Z,7.55
2023-04-27T14:23:30.210Z,6.30
2023-04-27T14:25:59.095Z,6.25
2023-04-27T14:28:27.947Z,5.13
2023-04-27T14:30:56.274Z,8.15
2023-04-27T14:33:26.634Z,7.10
2023-04-27T14:35:56.254Z,6.72
2023-04-27T14:38:27.698Z,8.10
2023-04-27T14:40:56.340Z,8.02
2023-04-27T14:43:25.303Z,7.03
2023-04-27T14:45:59.518Z,5.30
2023-04-27T14:48:35.230Z,10.18
2023-04-27T14:51:03.780Z,10.73
2023-04-27T14:53:32.513Z,11.55
2023-04-27T14:56:00.921Z,5.50
2023-04-27T14:58:32.170Z,5.80
2023-04-27T15:01:04.017Z,5.53
2023-04-27T15:03:34.540Z,6.10
2023-04-27T15:06:05.308Z,8.80
2023-04-27T15:08:34.393Z,5.82
2023-04-27T15:11:04.488Z,9.35
2023-04-27T15:13:33.169Z,6.70
2023-04-27T15:16:02.278Z,7.25
2023-04-27T15:18:30.903Z,5.88
2023-04-27T15:21:01.082Z,11.60
2023-04-27T15:23:29.840Z,10.20
2023-04-27T15:25:59.157Z,8.57
2023-04-27T15:28:27.786Z,8.02
2023-04-27T15:30:56.351Z,6.47
2023-04-27T15:33:25.247Z,7.53
2023-04-27T15:35:53.800Z,8.63
2023-04-27T15:38:24.018Z,8.32
2023-04-27T15:40:52.436Z,8.40
2023-04-27T15:43:21.781Z,7.72
2023-04-27T15:45:50.768Z,8.48
2023-04-27T15:48:19.419Z,7.55
2023-04-27T15:50:48.431Z,9.15
2023-04-27T15:53:17.260Z,7.35
2023-04-27T15:55:47.100Z,6.88
2023-04-27T15:58:16.938Z,7.70
2023-04-27T16:00:46.042Z,11.52
2023-04-27T16:03:15.015Z,8.88
2023-04-27T16:05:44.309Z,10.50
2023-04-27T16:08:12.989Z,7.78
2023-04-27T16:10:41.485Z,9.23
2023-04-27T16:13:13.281Z,6.72
2023-04-27T16:18:10.358Z,8.13
2023-04-27T16:20:38.867Z,6.38
2023-04-27T16:23:07.878Z,9.25
2023-04-27T16:25:36.403Z,10.73
2023-04-27T16:28:05.240Z,7.07
2023-04-27T16:30:35.186Z,11.75
2023-04-27T16:33:03.939Z,8.35
2023-04-27T16:35:33.709Z,11.75
2023-04-27T16:38:03.455Z,9.18
2023-04-27T16:40:32.165Z,11.00
2023-04-27T16:43:01.232Z,7.13
2023-04-27T16:45:29.889Z,10.80
2023-04-27T16:48:00.199Z,8.75
2023-04-27T16:50:31.615Z,12.93
2023-04-27T16:53:06.446Z,8.25
2023-04-27T16:55:34.864Z,10.63
2023-04-27T16:58:03.829Z,11.38
2023-04-27T17:00:32.364Z,10.82
2023-04-27T17:03:02.565Z,8.95
2023-04-27T17:05:30.938Z,7.88
2023-04-27T17:07:59.476Z,8.75
2023-04-27T17:10:28.101Z,7.15
2023-04-27T17:12:56.626Z,7.88
2023-04-27T17:15:26.294Z,7.88
2023-04-27T17:17:55.115Z,10.02
2023-04-27T17:20:25.072Z,8.88
2023-04-27T17:22:54.257Z,7.78
2023-04-27T17:25:22.932Z,10.05
2023-04-27T17:27:51.571Z,10.93
2023-04-27T17:30:20.184Z,10.15
2023-04-27T17:32:49.054Z,9.40
2023-04-27T17:35:20.524Z,11.20
2023-04-27T17:37:50.732Z,11.75
2023-04-27T17:40:21.086Z,9.60
2023-04-27T17:42:49.683Z,9.43
2023-04-27T17:45:18.326Z,11.05
2023-04-27T17:47:46.941Z,10.52
2023-04-27T17:50:15.309Z,11.02
2023-04-27T17:52:44.165Z,7.80
2023-04-27T17:55:13.865Z,11.23
2023-04-27T17:57:42.501Z,9.90
2023-04-27T18:00:12.207Z,11.95
2023-04-27T18:02:40.941Z,10.40
2023-04-27T18:05:09.497Z,10.95
2023-04-27T18:07:38.564Z,11.05
2023-04-27T18:10:08.292Z,13.15
2023-04-27T18:12:38.327Z,13.60
2023-04-27T18:15:09.785Z,13.48
2023-04-27T18:17:38.626Z,9.10
2023-04-27T18:20:10.514Z,6.32
2023-04-27T18:22:40.356Z,10.32
2023-04-27T18:25:10.021Z,9.27
2023-04-27T18:27:39.968Z,12.88
2023-04-27T18:30:09.438Z,14.75
2023-04-27T18:32:38.285Z,12.85
2023-04-27T18:35:07.428Z,14.77
2023-04-27T18:37:36.176Z,11.23
2023-04-27T18:40:06.141Z,9.30
2023-04-27T18:42:35.618Z,8.80
2023-04-27T18:45:06.304Z,7.55
2023-04-27T18:47:34.862Z,6.80
2023-04-27T18:50:03.413Z,9.18
2023-04-27T18:52:32.174Z,9.35
2023-04-27T18:55:00.450Z,9.13
2023-04-27T18:57:29.110Z,10.40
2023-04-27T18:59:57.368Z,7.95
2023-04-27T19:02:27.614Z,13.38
2023-04-27T19:05:10.965Z,16.80
2023-04-27T19:07:41.318Z,25.20
2023-04-27T19:10:10.967Z,19.15
2023-04-27T19:12:39.663Z,16.10
2023-04-27T19:15:08.340Z,14.65
2023-04-27T19:17:38.824Z,16.20
2023-04-27T19:20:08.362Z,21.98
2023-04-27T19:22:37.143Z,19.50
2023-04-27T19:25:06.139Z,16.95
2023-04-27T19:27:34.714Z,19.17
2023-04-27T19:30:04.336Z,18.73
2023-04-27T19:32:34.484Z,16.73
2023-04-27T19:35:04.672Z,20.65
2023-04-27T19:37:33.262Z,22.48
2023-04-27T19:40:01.878Z,21.02
2023-04-27T19:42:30.763Z,28.50
2023-04-27T19:44:59.007Z,28.30
2023-04-27T19:47:27.589Z,30.23
2023-04-27T19:49:58.502Z,33.60
2023-04-27T19:52:28.568Z,35.05
2023-04-27T19:54:57.816Z,45.17
2023-04-27T19:57:26.878Z,35.10
2023-04-27T19:59:55.329Z,26.15
2023-04-27T20:02:24.101Z,25.02
2023-04-27T20:04:52.937Z,21.55
2023-04-27T20:07:21.772Z,25.70
2023-04-27T20:09:51.536Z,26.20
2023-04-27T20:12:43.609Z,25.45
2023-04-27T20:15:09.742Z,29.20
2023-04-27T20:17:38.322Z,26.02
2023-04-27T20:20:10.581Z,24.90
2023-04-27T20:22:39.477Z,27.40
2023-04-27T20:25:10.047Z,25.60
2023-04-27T20:27:38.763Z,31.38
2023-04-27T20:30:08.341Z,23.90
2023-04-27T20:32:37.215Z,19.27
2023-04-27T20:35:05.845Z,23.25
2023-04-27T20:37:34.307Z,17.83
2023-04-27T20:40:02.525Z,21.67
2023-04-27T20:42:32.694Z,22.25
2023-04-27T20:45:01.132Z,13.38
2023-04-27T20:47:29.723Z,38.35
2023-04-27T20:49:57.957Z,25.45
2023-04-27T20:52:29.405Z,23.73
2023-04-27T20:54:59.347Z,18.88
2023-04-27T20:57:27.880Z,19.85
2023-04-27T20:59:57.646Z,21.05
2023-04-27T21:02:26.301Z,20.42
2023-04-27T21:04:54.761Z,24.05
2023-04-27T21:07:26.053Z,20.20
2023-04-27T21:09:54.435Z,22.35
2023-04-27T21:12:22.946Z,21.27
2023-04-27T21:14:51.523Z,20.52
2023-04-27T21:17:21.753Z,23.42
2023-04-27T21:19:49.983Z,19.05
2023-04-27T21:22:18.573Z,19.48
2023-04-27T21:24:47.716Z,16.92
2023-04-27T21:27:16.305Z,18.10
2023-04-27T21:29:44.601Z,19.70
2023-04-27T21:32:13.036Z,18.60
2023-04-27T21:34:42.697Z,20.20
2023-04-27T21:37:11.502Z,15.68
2023-04-27T21:39:39.836Z,19.88
2023-04-27T21:42:08.626Z,16.75
2023-04-27T21:44:36.804Z,21.63
2023-04-27T21:47:05.446Z,18.23
2023-04-27T21:49:33.862Z,17.40
2023-04-27T21:52:03.723Z,16.33
2023-04-27T21:54:32.169Z,16.08
2023-04-27T21:57:00.909Z,30.88
2023-04-27T21:59:29.442Z,35.97
2023-04-27T22:01:59.405Z,39.55
2023-04-27T22:04:29.082Z,36.58
2023-04-27T22:06:57.778Z,38.20
2023-04-27T22:09:27.419Z,39.17
2023-04-27T22:11:55.990Z,40.50
2023-04-27T22:14:24.212Z,40.00
2023-04-27T22:16:52.762Z,36.85
2023-04-27T22:19:20.992Z,35.22
2023-04-27T22:21:49.530Z,33.88
2023-04-27T22:24:18.262Z,33.38
2023-04-27T22:26:48.463Z,30.38
2023-04-27T22:29:16.859Z,28.27
2023-04-27T22:31:46.714Z,26.05
2023-04-27T22:34:15.322Z,30.35
2023-04-27T22:36:43.989Z,36.70
2023-04-27T22:39:12.276Z,27.98
2023-04-27T22:41:41.255Z,31.23
2023-04-27T22:44:11.081Z,25.35
2023-04-27T22:46:39.607Z,32.28
2023-04-27T22:49:08.159Z,31.25
2023-04-27T22:51:37.490Z,26.98
2023-04-27T22:54:06.078Z,27.80
2023-04-27T22:56:34.598Z,21.45
2023-04-27T22:59:02.837Z,20.95
2023-04-27T23:01:32.917Z,37.88
2023-04-27T23:04:01.296Z,27.17
2023-04-27T23:06:30.472Z,24.65
2023-04-27T23:08:59.228Z,23.75
2023-04-27T23:11:28.642Z,31.08
2023-04-27T23:13:57.586Z,30.60
2023-04-27T23:16:26.830Z,29.55
2023-04-27T23:18:56.333Z,31.13
2023-04-27T23:21:26.470Z,36.70
2023-04-27T23:23:54.748Z,40.97
2023-04-27T23:26:23.222Z,44.50
2023-04-27T23:28:51.377Z,42.50
2023-04-27T23:31:19.992Z,45.33
2023-04-27T23:33:48.252Z,61.10
2023-04-27T23:36:18.189Z,59.58
2023-04-27T23:38:46.396Z,56.15
2023-04-27T23:41:14.911Z,54.15
2023-04-27T23:43:43.208Z,47.38
2023-04-27T23:46:11.717Z,48.10
2023-04-27T23:48:40.019Z,52.55
2023-04-27T23:51:08.527Z,46.17
2023-04-27T23:53:38.138Z,44.08
2023-04-27T23:56:07.341Z,46.88
2023-04-27T23:58:35.561Z,42.40
